sensor_id;sensor_type;location;lat;lon;timestamp;pressure;altitude;pressure_sealevel;temperature;humidity
59106;BME280;44891;50.204;8.132;2022-11-18T00:02:52;96343.59;;;8.27;100.00
59106;BME280;44891;50.204;8.132;2022-11-18T00:06:53;96353.00;;;8.28;100.00
59106;BME280;44891;50.204;8.132;2022-11-18T00:10:55;96353.00;;;8.23;100.00
59106;BME280;44891;50.204;8.132;2022-11-18T00:14:57;96349.59;;;8.28;100.00
59106;BME280;44891;50.204;8.132;2022-11-18T00:19:00;96347.47;;;8.35;100.00
59106;BME280;44891;50.204;8.132;2022-11-18T00:23:02;96350.34;;;8.38;100.00
59106;BME280;44891;50.204;8.132;2022-11-18T00:27:03;96345.91;;;8.34;100.00
59106;BME280;44891;50.204;8.132;2022-11-18T00:31:06;96347.22;;;8.36;100.00
59106;BME280;44891;50.204;8.132;2022-11-18T00:35:10;96355.88;;;8.27;100.00
59106;BME280;44891;50.204;8.132;2022-11-18T00:39:12;96354.81;;;8.33;100.00
59106;BME280;44891;50.204;8.132;2022-11-18T00:43:15;96352.22;;;8.28;100.00
59106;BME280;44891;50.204;8.132;2022-11-18T00:47:16;96345.94;;;8.29;100.00
59106;BME280;44891;50.204;8.132;2022-11-18T00:51:20;96350.59;;;8.32;100.00
59106;BME280;44891;50.204;8.132;2022-11-18T00:55:22;96354.81;;;8.33;100.00
59106;BME280;44891;50.204;8.132;2022-11-18T00:59:23;96355.09;;;8.26;100.00
59106;BME280;44891;50.204;8.132;2022-11-18T01:03:25;96362.38;;;8.34;100.00
59106;BME280;44891;50.204;8.132;2022-11-18T01:07:29;96371.53;;;8.32;100.00
59106;BME280;44891;50.204;8.132;2022-11-18T01:11:31;96372.63;;;8.26;100.00
59106;BME280;44891;50.204;8.132;2022-11-18T01:15:51;96366.06;;;8.33;100.00
59106;BME280;44891;50.204;8.132;2022-11-18T01:19:53;96369.97;;;8.36;100.00
59106;BME280;44891;50.204;8.132;2022-11-18T01:23:56;96374.94;;;8.32;100.00
59106;BME280;44891;50.204;8.132;2022-11-18T01:27:58;96378.09;;;8.29;100.00
59106;BME280;44891;50.204;8.132;2022-11-18T01:32:00;96375.47;;;8.29;100.00
59106;BME280;44891;50.204;8.132;2022-11-18T01:36:02;96381.75;;;8.33;100.00
59106;BME280;44891;50.204;8.132;2022-11-18T01:40:06;96390.09;;;8.30;100.00
59106;BME280;44891;50.204;8.132;2022-11-18T01:48:27;96385.16;;;8.29;100.00
59106;BME280;44891;50.204;8.132;2022-11-18T01:52:30;96388.31;;;8.26;100.00
59106;BME280;44891;50.204;8.132;2022-11-18T01:56:36;96382.81;;;8.27;100.00
59106;BME280;44891;50.204;8.132;2022-11-18T02:00:39;96398.78;;;8.26;100.00
59106;BME280;44891;50.204;8.132;2022-11-18T02:04:43;96402.41;;;8.25;100.00
59106;BME280;44891;50.204;8.132;2022-11-18T02:08:47;96402.41;;;8.25;100.00
59106;BME280;44891;50.204;8.132;2022-11-18T02:12:51;96410.25;;;8.30;100.00
59106;BME280;44891;50.204;8.132;2022-11-18T02:16:59;96403.19;;;8.35;100.00
59106;BME280;44891;50.204;8.132;2022-11-18T02:21:06;96412.06;;;8.34;100.00
59106;BME280;44891;50.204;8.132;2022-11-18T02:25:14;96402.41;;;8.30;100.00
59106;BME280;44891;50.204;8.132;2022-11-18T02:29:22;96404.75;;;8.36;100.00
59106;BME280;44891;50.204;8.132;2022-11-18T02:33:25;96402.63;;;8.49;100.00
59106;BME280;44891;50.204;8.132;2022-11-18T02:37:30;96407.56;;;8.55;100.00
59106;BME280;44891;50.204;8.132;2022-11-18T02:41:35;96405.19;;;8.59;100.00
59106;BME280;44891;50.204;8.132;2022-11-18T02:45:38;96414.38;;;8.51;100.00
59106;BME280;44891;50.204;8.132;2022-11-18T02:49:43;96417.28;;;8.44;100.00
59106;BME280;44891;50.204;8.132;2022-11-18T02:53:47;96420.69;;;8.35;100.00
59106;BME280;44891;50.204;8.132;2022-11-18T02:57:50;96414.19;;;8.32;100.00
59106;BME280;44891;50.204;8.132;2022-11-18T03:01:54;96422.81;;;8.23;100.00
59106;BME280;44891;50.204;8.132;2022-11-18T03:06:01;96423.38;;;8.14;100.00
59106;BME280;44891;50.204;8.132;2022-11-18T03:10:05;96429.13;;;8.16;100.00
59106;BME280;44891;50.204;8.132;2022-11-18T03:14:08;96428.63;;;8.09;100.00
59106;BME280;44891;50.204;8.132;2022-11-18T03:18:19;96428.13;;;7.97;100.00
59106;BME280;44891;50.204;8.132;2022-11-18T03:22:27;96432.00;;;8.05;100.00
59106;BME280;44891;50.204;8.132;2022-11-18T03:26:30;96437.56;;;7.93;100.00
59106;BME280;44891;50.204;8.132;2022-11-18T03:30:34;96446.41;;;7.97;100.00
59106;BME280;44891;50.204;8.132;2022-11-18T03:34:39;96456.34;;;7.95;100.00
59106;BME280;44891;50.204;8.132;2022-11-18T03:38:43;96465.25;;;7.79;100.00
59106;BME280;44891;50.204;8.132;2022-11-18T03:42:48;96456.63;;;7.83;100.00
59106;BME280;44891;50.204;8.132;2022-11-18T03:46:53;96461.34;;;7.86;100.00
59106;BME280;44891;50.204;8.132;2022-11-18T03:50:59;96468.63;;;7.84;100.00
59106;BME280;44891;50.204;8.132;2022-11-18T03:55:04;96472.56;;;7.77;100.00
59106;BME280;44891;50.204;8.132;2022-11-18T03:59:09;96472.03;;;7.64;100.00
59106;BME280;44891;50.204;8.132;2022-11-18T04:03:13;96490.34;;;7.49;100.00
59106;BME280;44891;50.204;8.132;2022-11-18T04:07:18;96486.94;;;7.59;100.00
59106;BME280;44891;50.204;8.132;2022-11-18T04:11:23;96489.81;;;7.68;100.00
59106;BME280;44891;50.204;8.132;2022-11-18T04:15:44;96492.16;;;7.64;100.00
59106;BME280;44891;50.204;8.132;2022-11-18T04:19:46;96491.41;;;7.53;100.00
59106;BME280;44891;50.204;8.132;2022-11-18T04:23:49;96495.03;;;7.42;100.00
59106;BME280;44891;50.204;8.132;2022-11-18T04:27:51;96508.84;;;7.38;100.00
59106;BME280;44891;50.204;8.132;2022-11-18T04:31:57;96510.66;;;7.32;100.00
59106;BME280;44891;50.204;8.132;2022-11-18T04:35:59;96515.38;;;7.35;100.00
59106;BME280;44891;50.204;8.132;2022-11-18T04:40:02;96511.44;;;7.32;100.00
59106;BME280;44891;50.204;8.132;2022-11-18T04:44:04;96514.34;;;7.36;100.00
59106;BME280;44891;50.204;8.132;2022-11-18T04:48:12;96521.41;;;7.41;100.00
59106;BME280;44891;50.204;8.132;2022-11-18T04:52:15;96526.88;;;7.29;100.00
59106;BME280;44891;50.204;8.132;2022-11-18T04:56:18;96534.97;;;7.43;100.00
59106;BME280;44891;50.204;8.132;2022-11-18T05:00:20;96533.94;;;7.44;100.00
59106;BME280;44891;50.204;8.132;2022-11-18T05:04:23;96528.44;;;7.30;100.00
59106;BME280;44891;50.204;8.132;2022-11-18T05:08:25;96529.19;;;7.25;100.00
59106;BME280;44891;50.204;8.132;2022-11-18T05:12:29;96530.25;;;7.29;100.00
59106;BME280;44891;50.204;8.132;2022-11-18T05:16:52;96541.47;;;7.30;100.00
59106;BME280;44891;50.204;8.132;2022-11-18T05:20:54;96547.16;;;7.12;100.00
59106;BME280;44891;50.204;8.132;2022-11-18T05:24:56;96551.34;;;7.07;100.00
59106;BME280;44891;50.204;8.132;2022-11-18T05:28:59;96555.03;;;7.22;100.00
59106;BME280;44891;50.204;8.132;2022-11-18T05:33:01;96556.66;;;7.38;100.00
59106;BME280;44891;50.204;8.132;2022-11-18T05:37:03;96562.63;;;7.23;100.00
59106;BME280;44891;50.204;8.132;2022-11-18T05:41:05;96567.00;;;7.07;100.00
59106;BME280;44891;50.204;8.132;2022-11-18T05:45:08;96567.56;;;7.25;100.00
59106;BME280;44891;50.204;8.132;2022-11-18T05:49:10;96567.34;;;7.36;100.00
59106;BME280;44891;50.204;8.132;2022-11-18T05:53:12;96573.63;;;7.41;100.00
59106;BME280;44891;50.204;8.132;2022-11-18T05:57:14;96585.13;;;7.45;100.00
59106;BME280;44891;50.204;8.132;2022-11-18T06:01:19;96585.09;;;7.34;100.00
59106;BME280;44891;50.204;8.132;2022-11-18T06:05:22;96592.16;;;7.44;100.00
59106;BME280;44891;50.204;8.132;2022-11-18T06:09:26;96591.38;;;7.44;100.00
59106;BME280;44891;50.204;8.132;2022-11-18T06:13:30;96592.97;;;7.45;100.00
59106;BME280;44891;50.204;8.132;2022-11-18T06:17:34;96600.56;;;7.46;100.00
59106;BME280;44891;50.204;8.132;2022-11-18T06:21:38;96611.53;;;7.53;100.00
59106;BME280;44891;50.204;8.132;2022-11-18T06:25:40;96620.97;;;7.59;100.00
59106;BME280;44891;50.204;8.132;2022-11-18T06:29:42;96626.44;;;7.53;100.00
59106;BME280;44891;50.204;8.132;2022-11-18T06:33:45;96640.00;;;7.50;100.00
59106;BME280;44891;50.204;8.132;2022-11-18T06:37:47;96642.34;;;7.51;100.00
59106;BME280;44891;50.204;8.132;2022-11-18T06:41:51;96648.38;;;7.62;100.00
59106;BME280;44891;50.204;8.132;2022-11-18T06:45:55;96649.72;;;7.70;100.00
59106;BME280;44891;50.204;8.132;2022-11-18T06:50:17;96658.31;;;7.65;100.00
59106;BME280;44891;50.204;8.132;2022-11-18T06:54:19;96664.59;;;7.64;100.00
59106;BME280;44891;50.204;8.132;2022-11-18T06:58:21;96669.22;;;7.42;100.00
59106;BME280;44891;50.204;8.132;2022-11-18T07:02:23;96673.44;;;7.53;100.00
59106;BME280;44891;50.204;8.132;2022-11-18T07:06:26;96676.06;;;7.58;100.00
59106;BME280;44891;50.204;8.132;2022-11-18T07:10:29;96672.69;;;7.62;100.00
59106;BME280;44891;50.204;8.132;2022-11-18T07:14:30;96688.34;;;7.62;100.00
59106;BME280;44891;50.204;8.132;2022-11-18T07:18:32;96694.16;;;7.75;100.00
59106;BME280;44891;50.204;8.132;2022-11-18T07:22:36;96697.81;;;7.79;100.00
59106;BME280;44891;50.204;8.132;2022-11-18T07:26:38;96694.16;;;7.75;100.00
59106;BME280;44891;50.204;8.132;2022-11-18T07:30:40;96705.94;;;7.87;100.00
59106;BME280;44891;50.204;8.132;2022-11-18T07:34:42;96720.84;;;7.97;100.00
59106;BME280;44891;50.204;8.132;2022-11-18T07:38:46;96721.41;;;7.99;100.00
59106;BME280;44891;50.204;8.132;2022-11-18T07:42:48;96722.66;;;7.91;100.00
59106;BME280;44891;50.204;8.132;2022-11-18T07:46:57;96730.25;;;7.98;100.00
59106;BME280;44891;50.204;8.132;2022-11-18T07:50:59;96730.81;;;8.00;100.00
59106;BME280;44891;50.204;8.132;2022-11-18T07:55:02;96735.25;;;8.05;100.00
59106;BME280;44891;50.204;8.132;2022-11-18T07:59:04;96738.38;;;7.97;100.00
59106;BME280;44891;50.204;8.132;2022-11-18T08:03:06;96751.47;;;8.02;100.00
59106;BME280;44891;50.204;8.132;2022-11-18T08:07:08;96752.81;;;8.20;100.00
59106;BME280;44891;50.204;8.132;2022-11-18T08:11:12;96761.44;;;8.25;100.00
59106;BME280;44891;50.204;8.132;2022-11-18T08:15:14;96764.06;;;8.25;100.00
59106;BME280;44891;50.204;8.132;2022-11-18T08:19:16;96760.66;;;8.25;100.00
59106;BME280;44891;50.204;8.132;2022-11-18T08:23:18;96767.47;;;8.26;100.00
59106;BME280;44891;50.204;8.132;2022-11-18T08:27:21;96779.50;;;8.32;100.00
59106;BME280;44891;50.204;8.132;2022-11-18T08:31:23;96775.38;;;8.36;100.00
59106;BME280;44891;50.204;8.132;2022-11-18T08:35:26;96779.03;;;8.45;100.00
59106;BME280;44891;50.204;8.132;2022-11-18T08:39:28;96776.97;;;8.52;100.00
59106;BME280;44891;50.204;8.132;2022-11-18T08:43:31;96790.31;;;8.61;100.00
59106;BME280;44891;50.204;8.132;2022-11-18T08:47:33;96795.31;;;8.67;100.00
59106;BME280;44891;50.204;8.132;2022-11-18T08:51:35;96802.13;;;8.79;100.00
59106;BME280;44891;50.204;8.132;2022-11-18T08:55:37;96802.88;;;8.84;100.00
59106;BME280;44891;50.204;8.132;2022-11-18T08:59:40;96805.00;;;8.92;100.00
59106;BME280;44891;50.204;8.132;2022-11-18T09:03:42;96811.03;;;8.93;100.00
59106;BME280;44891;50.204;8.132;2022-11-18T09:07:44;96819.41;;;9.00;100.00
59106;BME280;44891;50.204;8.132;2022-11-18T09:11:46;96811.28;;;9.17;100.00
59106;BME280;44891;50.204;8.132;2022-11-18T09:15:49;96819.38;;;9.31;100.00
59106;BME280;44891;50.204;8.132;2022-11-18T09:19:51;96824.63;;;9.36;100.00
59106;BME280;44891;50.204;8.132;2022-11-18T09:23:53;96819.66;;;9.39;100.00
59106;BME280;44891;50.204;8.132;2022-11-18T09:27:55;96820.16;;;9.46;100.00
59106;BME280;44891;50.204;8.132;2022-11-18T09:32:00;96828.53;;;9.43;100.00
59106;BME280;44891;50.204;8.132;2022-11-18T09:36:02;96831.41;;;9.42;100.00
59106;BME280;44891;50.204;8.132;2022-11-18T09:40:05;96830.63;;;9.46;100.00
59106;BME280;44891;50.204;8.132;2022-11-18T09:44:10;96834.56;;;9.49;100.00
59106;BME280;44891;50.204;8.132;2022-11-18T09:48:18;96839.25;;;9.57;99.55
59106;BME280;44891;50.204;8.132;2022-11-18T09:52:43;96844.75;;;9.61;99.45
59106;BME280;44891;50.204;8.132;2022-11-18T09:56:47;96850.28;;;9.59;100.00
59106;BME280;44891;50.204;8.132;2022-11-18T10:00:50;96854.19;;;9.62;100.00
59106;BME280;44891;50.204;8.132;2022-11-18T10:04:54;96861.00;;;9.73;98.75
59106;BME280;44891;50.204;8.132;2022-11-18T10:08:59;96852.28;;;9.98;98.27
59106;BME280;44891;50.204;8.132;2022-11-18T10:13:08;96862.97;;;10.27;96.11
59106;BME280;44891;50.204;8.132;2022-11-18T10:17:17;96860.97;;;10.58;93.19
59106;BME280;44891;50.204;8.132;2022-11-18T10:21:28;96863.31;;;10.59;90.28
59106;BME280;44891;50.204;8.132;2022-11-18T10:25:34;96870.25;;;10.40;90.23
59106;BME280;44891;50.204;8.132;2022-11-18T10:29:36;96872.94;;;10.20;92.67
59106;BME280;44891;50.204;8.132;2022-11-18T10:33:38;96880.28;;;10.13;94.04
59106;BME280;44891;50.204;8.132;2022-11-18T10:37:41;96879.22;;;10.29;93.25
59106;BME280;44891;50.204;8.132;2022-11-18T10:41:44;96879.84;;;10.65;90.37
59106;BME280;44891;50.204;8.132;2022-11-18T10:45:47;96863.41;;;10.88;87.36
59106;BME280;44891;50.204;8.132;2022-11-18T10:49:49;96874.19;;;10.87;86.56
59106;BME280;44891;50.204;8.132;2022-11-18T10:53:52;96889.03;;;10.62;85.26
59106;BME280;44891;50.204;8.132;2022-11-18T10:58:08;96884.06;;;10.56;86.82
59106;BME280;44891;50.204;8.132;2022-11-18T11:02:13;96888.81;;;10.54;87.07
59106;BME280;44891;50.204;8.132;2022-11-18T11:10:34;96892.53;;;10.43;89.88
59106;BME280;44891;50.204;8.132;2022-11-18T11:14:47;96894.94;;;10.34;89.70
59106;BME280;44891;50.204;8.132;2022-11-18T11:18:52;96892.56;;;10.38;89.10
59106;BME280;44891;50.204;8.132;2022-11-18T11:22:56;96894.66;;;10.35;89.34
59106;BME280;44891;50.204;8.132;2022-11-18T11:27:04;96894.19;;;10.23;90.62
59106;BME280;44891;50.204;8.132;2022-11-18T11:31:09;96897.88;;;10.12;90.36
59106;BME280;44891;50.204;8.132;2022-11-18T11:35:15;96904.47;;;9.99;89.46
59106;BME280;44891;50.204;8.132;2022-11-18T11:39:26;96897.13;;;9.96;89.73
59106;BME280;44891;50.204;8.132;2022-11-18T11:43:42;96907.88;;;10.05;89.55
59106;BME280;44891;50.204;8.132;2022-11-18T11:47:53;96899.66;;;10.22;89.36
59106;BME280;44891;50.204;8.132;2022-11-18T11:51:58;96892.47;;;13.74;74.77
59106;BME280;44891;50.204;8.132;2022-11-18T11:56:06;96900.25;;;12.58;74.81
59106;BME280;44891;50.204;8.132;2022-11-18T12:00:14;96903.56;;;11.33;80.77
59106;BME280;44891;50.204;8.132;2022-11-18T12:04:21;96909.66;;;10.89;84.41
59106;BME280;44891;50.204;8.132;2022-11-18T12:08:28;96910.75;;;10.78;84.42
59106;BME280;44891;50.204;8.132;2022-11-18T12:12:32;96910.31;;;10.56;85.50
59106;BME280;44891;50.204;8.132;2022-11-18T12:16:41;96923.53;;;10.35;86.54
59106;BME280;44891;50.204;8.132;2022-11-18T12:20:46;96926.72;;;10.17;87.21
59106;BME280;44891;50.204;8.132;2022-11-18T12:24:49;96927.25;;;10.14;86.98
59106;BME280;44891;50.204;8.132;2022-11-18T12:28:51;96932.47;;;10.29;85.71
59106;BME280;44891;50.204;8.132;2022-11-18T12:32:55;96922.13;;;14.12;70.70
59106;BME280;44891;50.204;8.132;2022-11-18T12:37:29;96925.16;;;14.88;64.13
59106;BME280;44891;50.204;8.132;2022-11-18T12:46:01;96931.06;;;12.09;75.12
59106;BME280;44891;50.204;8.132;2022-11-18T12:50:06;96934.19;;;11.48;78.61
59106;BME280;44891;50.204;8.132;2022-11-18T12:58:31;96933.09;;;12.41;72.20
59106;BME280;44891;50.204;8.132;2022-11-18T13:02:34;96927.34;;;12.58;66.76
59106;BME280;44891;50.204;8.132;2022-11-18T13:06:36;96928.34;;;12.43;65.74
59106;BME280;44891;50.204;8.132;2022-11-18T13:10:39;96933.97;;;12.56;69.15
59106;BME280;44891;50.204;8.132;2022-11-18T13:14:44;96921.78;;;18.89;48.60
59106;BME280;44891;50.204;8.132;2022-11-18T13:19:05;96932.25;;;19.69;45.10
59106;BME280;44891;50.204;8.132;2022-11-18T13:23:18;96946.94;;;18.24;47.02
59106;BME280;44891;50.204;8.132;2022-11-18T13:27:44;96942.84;;;17.54;49.25
59106;BME280;44891;50.204;8.132;2022-11-18T13:31:51;96950.47;;;16.46;51.49
59106;BME280;44891;50.204;8.132;2022-11-18T13:35:57;96951.69;;;15.33;55.02
59106;BME280;44891;50.204;8.132;2022-11-18T13:39:59;96947.41;;;13.86;58.09
59106;BME280;44891;50.204;8.132;2022-11-18T13:44:09;96941.78;;;13.03;61.20
59106;BME280;44891;50.204;8.132;2022-11-18T13:48:11;96953.59;;;12.44;65.23
59106;BME280;44891;50.204;8.132;2022-11-18T13:52:16;96953.69;;;12.10;65.93
59106;BME280;44891;50.204;8.132;2022-11-18T13:56:21;96952.56;;;11.87;66.49
59106;BME280;44891;50.204;8.132;2022-11-18T14:00:25;96959.59;;;11.63;66.92
59106;BME280;44891;50.204;8.132;2022-11-18T14:04:28;96960.44;;;11.53;67.21
59106;BME280;44891;50.204;8.132;2022-11-18T14:08:32;96966.09;;;11.36;66.78
59106;BME280;44891;50.204;8.132;2022-11-18T14:12:35;96965.94;;;11.23;67.33
59106;BME280;44891;50.204;8.132;2022-11-18T14:16:37;96965.44;;;11.15;68.96
59106;BME280;44891;50.204;8.132;2022-11-18T14:20:39;96967.63;;;11.03;70.89
59106;BME280;44891;50.204;8.132;2022-11-18T14:24:54;96967.16;;;10.91;71.25
59106;BME280;44891;50.204;8.132;2022-11-18T14:28:57;96972.72;;;10.79;70.79
59106;BME280;44891;50.204;8.132;2022-11-18T14:33:16;96974.28;;;10.80;70.80
59106;BME280;44891;50.204;8.132;2022-11-18T14:37:20;96971.75;;;10.60;73.70
59106;BME280;44891;50.204;8.132;2022-11-18T14:41:23;96977.56;;;10.47;74.22
59106;BME280;44891;50.204;8.132;2022-11-18T14:45:39;96980.47;;;10.30;75.46
59106;BME280;44891;50.204;8.132;2022-11-18T14:49:41;96980.50;;;10.15;75.11
59106;BME280;44891;50.204;8.132;2022-11-18T14:53:43;96988.91;;;10.01;76.34
59106;BME280;44891;50.204;8.132;2022-11-18T14:57:46;96994.66;;;9.83;77.49
59106;BME280;44891;50.204;8.132;2022-11-18T15:01:48;97000.19;;;9.76;78.27
59106;BME280;44891;50.204;8.132;2022-11-18T15:05:50;96997.81;;;9.39;80.47
59106;BME280;44891;50.204;8.132;2022-11-18T15:09:52;96998.31;;;9.31;81.08
59106;BME280;44891;50.204;8.132;2022-11-18T15:13:55;97003.00;;;9.19;82.54
59106;BME280;44891;50.204;8.132;2022-11-18T15:17:57;96993.31;;;9.19;82.71
59106;BME280;44891;50.204;8.132;2022-11-18T15:21:59;96998.78;;;9.08;84.27
59106;BME280;44891;50.204;8.132;2022-11-18T15:26:01;96998.22;;;8.95;85.17
59106;BME280;44891;50.204;8.132;2022-11-18T15:30:06;97008.38;;;8.82;85.40
59106;BME280;44891;50.204;8.132;2022-11-18T15:34:08;97019.13;;;8.80;87.17
59106;BME280;44891;50.204;8.132;2022-11-18T15:38:10;97018.84;;;8.82;87.07
59106;BME280;44891;50.204;8.132;2022-11-18T15:42:12;97022.50;;;8.81;87.31
59106;BME280;44891;50.204;8.132;2022-11-18T15:46:15;97016.19;;;8.66;87.95
59106;BME280;44891;50.204;8.132;2022-11-18T15:50:18;97021.84;;;8.48;89.79
59106;BME280;44891;50.204;8.132;2022-11-18T15:54:20;97027.75;;;8.33;90.48
59106;BME280;44891;50.204;8.132;2022-11-18T15:58:22;97032.94;;;8.28;89.97
59106;BME280;44891;50.204;8.132;2022-11-18T16:02:25;97030.81;;;8.25;89.69
59106;BME280;44891;50.204;8.132;2022-11-18T16:06:27;97045.09;;;8.07;90.69
59106;BME280;44891;50.204;8.132;2022-11-18T16:10:29;97044.00;;;8.03;91.87
59106;BME280;44891;50.204;8.132;2022-11-18T16:14:49;97038.69;;;7.93;92.22
59106;BME280;44891;50.204;8.132;2022-11-18T16:19:13;97044.72;;;7.94;92.58
59106;BME280;44891;50.204;8.132;2022-11-18T16:23:15;97054.81;;;7.85;93.88
59106;BME280;44891;50.204;8.132;2022-11-18T16:27:17;97054.09;;;7.89;93.76
59106;BME280;44891;50.204;8.132;2022-11-18T16:31:20;97065.19;;;7.75;94.02
59106;BME280;44891;50.204;8.132;2022-11-18T16:35:46;97064.34;;;7.69;93.56
59106;BME280;44891;50.204;8.132;2022-11-18T16:39:48;97073.38;;;7.56;93.35
59106;BME280;44891;50.204;8.132;2022-11-18T16:43:50;97076.50;;;7.53;94.15
59106;BME280;44891;50.204;8.132;2022-11-18T16:47:51;97076.25;;;7.55;94.23
59106;BME280;44891;50.204;8.132;2022-11-18T16:51:55;97078.94;;;7.38;96.09
59106;BME280;44891;50.204;8.132;2022-11-18T16:55:59;97089.88;;;7.35;98.00
59106;BME280;44891;50.204;8.132;2022-11-18T17:00:02;97088.47;;;7.49;96.80
59106;BME280;44891;50.204;8.132;2022-11-18T17:04:05;97091.97;;;7.33;97.44
59106;BME280;44891;50.204;8.132;2022-11-18T17:08:08;97101.72;;;7.21;98.35
59106;BME280;44891;50.204;8.132;2022-11-18T17:12:10;97097.06;;;7.23;97.88
59106;BME280;44891;50.204;8.132;2022-11-18T17:16:12;97095.16;;;7.40;98.02
59106;BME280;44891;50.204;8.132;2022-11-18T17:20:14;97106.88;;;7.38;97.75
59106;BME280;44891;50.204;8.132;2022-11-18T17:24:19;97103.19;;;7.33;98.13
59106;BME280;44891;50.204;8.132;2022-11-18T17:28:21;97114.25;;;7.41;99.21
59106;BME280;44891;50.204;8.132;2022-11-18T17:32:23;97105.13;;;7.43;99.03
59106;BME280;44891;50.204;8.132;2022-11-18T17:36:25;97103.91;;;7.29;97.89
59106;BME280;44891;50.204;8.132;2022-11-18T17:40:28;97104.44;;;7.31;97.02
59106;BME280;44891;50.204;8.132;2022-11-18T17:44:30;97100.69;;;7.22;97.19
59106;BME280;44891;50.204;8.132;2022-11-18T17:48:32;97107.50;;;7.23;97.37
59106;BME280;44891;50.204;8.132;2022-11-18T17:52:34;97110.03;;;7.18;97.98
59106;BME280;44891;50.204;8.132;2022-11-18T17:56:38;97113.41;;;7.13;98.60
59106;BME280;44891;50.204;8.132;2022-11-18T18:00:40;97107.50;;;7.23;98.56
59106;BME280;44891;50.204;8.132;2022-11-18T18:04:42;97123.59;;;7.15;99.32
59106;BME280;44891;50.204;8.132;2022-11-18T18:08:43;97127.16;;;7.08;99.57
59106;BME280;44891;50.204;8.132;2022-11-18T18:12:47;97127.06;;;7.20;98.86
59106;BME280;44891;50.204;8.132;2022-11-18T18:17:06;97138.56;;;7.02;99.72
59106;BME280;44891;50.204;8.132;2022-11-18T18:21:10;97127.41;;;7.07;100.00
59106;BME280;44891;50.204;8.132;2022-11-18T18:25:12;97132.94;;;7.11;100.00
59106;BME280;44891;50.204;8.132;2022-11-18T18:29:16;97131.47;;;6.98;100.00
59106;BME280;44891;50.204;8.132;2022-11-18T18:33:17;97127.63;;;7.05;100.00
59106;BME280;44891;50.204;8.132;2022-11-18T18:37:19;97134.75;;;7.10;100.00
59106;BME280;44891;50.204;8.132;2022-11-18T18:41:21;97127.41;;;7.07;100.00
59106;BME280;44891;50.204;8.132;2022-11-18T18:45:24;97126.72;;;6.95;100.00
59106;BME280;44891;50.204;8.132;2022-11-18T18:49:44;97115.97;;;6.91;100.00
59106;BME280;44891;50.204;8.132;2022-11-18T18:53:46;97124.16;;;6.78;100.00
59106;BME280;44891;50.204;8.132;2022-11-18T18:57:48;97127.88;;;6.82;100.00
59106;BME280;44891;50.204;8.132;2022-11-18T19:01:51;97131.16;;;6.94;100.00
59106;BME280;44891;50.204;8.132;2022-11-18T19:05:53;97131.72;;;6.96;100.00
59106;BME280;44891;50.204;8.132;2022-11-18T19:09:54;97134.94;;;7.03;100.00
59106;BME280;44891;50.204;8.132;2022-11-18T19:13:58;97132.06;;;7.05;100.00
59106;BME280;44891;50.204;8.132;2022-11-18T19:18:01;97134.84;;;6.98;99.89
59106;BME280;44891;50.204;8.132;2022-11-18T19:22:03;97132.41;;;6.92;99.90
59106;BME280;44891;50.204;8.132;2022-11-18T19:26:05;97145.34;;;6.65;100.00
59106;BME280;44891;50.204;8.132;2022-11-18T19:30:08;97152.63;;;6.63;100.00
59106;BME280;44891;50.204;8.132;2022-11-18T19:34:12;97152.41;;;6.47;100.00
59106;BME280;44891;50.204;8.132;2022-11-18T19:38:14;97158.25;;;6.38;100.00
59106;BME280;44891;50.204;8.132;2022-11-18T19:42:16;97164.72;;;6.35;100.00
59106;BME280;44891;50.204;8.132;2022-11-18T19:46:17;97165.50;;;6.52;100.00
59106;BME280;44891;50.204;8.132;2022-11-18T19:50:21;97171.03;;;6.39;100.00
59106;BME280;44891;50.204;8.132;2022-11-18T19:54:23;97167.09;;;6.53;100.00
59106;BME280;44891;50.204;8.132;2022-11-18T19:58:25;97173.03;;;6.49;100.00
59106;BME280;44891;50.204;8.132;2022-11-18T20:02:27;97182.09;;;6.46;100.00
59106;BME280;44891;50.204;8.132;2022-11-18T20:06:30;97177.50;;;6.53;100.00
59106;BME280;44891;50.204;8.132;2022-11-18T20:10:32;97189.06;;;6.58;100.00
59106;BME280;44891;50.204;8.132;2022-11-18T20:14:34;97184.81;;;6.35;100.00
59106;BME280;44891;50.204;8.132;2022-11-18T20:18:36;97194.28;;;6.41;100.00
59106;BME280;44891;50.204;8.132;2022-11-18T20:22:40;97196.31;;;6.39;100.00
59106;BME280;44891;50.204;8.132;2022-11-18T20:26:42;97195.72;;;6.48;100.00
59106;BME280;44891;50.204;8.132;2022-11-18T20:30:44;97194.53;;;6.56;100.00
59106;BME280;44891;50.204;8.132;2022-11-18T20:34:46;97197.06;;;6.68;100.00
59106;BME280;44891;50.204;8.132;2022-11-18T20:38:50;97200.31;;;6.75;100.00
59106;BME280;44891;50.204;8.132;2022-11-18T20:42:52;97193.34;;;6.64;100.00
59106;BME280;44891;50.204;8.132;2022-11-18T20:47:11;97202.75;;;6.65;100.00
59106;BME280;44891;50.204;8.132;2022-11-18T20:51:14;97202.59;;;6.71;100.00
59106;BME280;44891;50.204;8.132;2022-11-18T20:55:17;97196.56;;;6.71;100.00
59106;BME280;44891;50.204;8.132;2022-11-18T20:59:20;97199.09;;;6.66;100.00
59106;BME280;44891;50.204;8.132;2022-11-18T21:03:24;97203.78;;;6.64;100.00
59106;BME280;44891;50.204;8.132;2022-11-18T21:07:30;97207.97;;;6.81;100.00
59106;BME280;44891;50.204;8.132;2022-11-18T21:16:03;97217.84;;;6.79;100.00
59106;BME280;44891;50.204;8.132;2022-11-18T21:20:09;97213.72;;;6.67;100.00
59106;BME280;44891;50.204;8.132;2022-11-18T21:24:33;97224.72;;;6.69;100.00
59106;BME280;44891;50.204;8.132;2022-11-18T21:28:51;97217.75;;;6.58;100.00
59106;BME280;44891;50.204;8.132;2022-11-18T21:33:06;97217.44;;;6.71;100.00
59106;BME280;44891;50.204;8.132;2022-11-18T21:37:08;97222.72;;;6.59;100.00
59106;BME280;44891;50.204;8.132;2022-11-18T21:41:31;97223.94;;;6.68;100.00
59106;BME280;44891;50.204;8.132;2022-11-18T21:45:33;97235.56;;;6.77;100.00
59106;BME280;44891;50.204;8.132;2022-11-18T21:49:50;97237.88;;;6.74;100.00
59106;BME280;44891;50.204;8.132;2022-11-18T21:53:52;97226.72;;;6.62;100.00
59106;BME280;44891;50.204;8.132;2022-11-18T21:57:54;97239.59;;;6.68;100.00
59106;BME280;44891;50.204;8.132;2022-11-18T22:01:56;97241.09;;;6.81;100.00